sensor_id;sensor_type;location;lat;lon;timestamp;pressure;altitude;pressure_sealevel;temperature;humidity
57779;BME280;43608;49.486;9.640;2023-07-24T00:00:18;97947.75;;;18.80;60.57
57779;BME280;43608;49.486;9.640;2023-07-24T00:00:48;97930.16;;;18.75;60.39
57779;BME280;43608;49.486;9.640;2023-07-24T00:01:18;97955.44;;;18.88;60.45
57779;BME280;43608;49.486;9.640;2023-07-24T00:01:49;97951.03;;;18.87;60.31
57779;BME280;43608;49.486;9.640;2023-07-24T00:02:20;97923.94;;;18.74;60.44
57779;BME280;43608;49.486;9.640;2023-07-24T00:02:50;97942.19;;;18.85;60.48
57779;BME280;43608;49.486;9.640;2023-07-24T00:03:20;97945.59;;;18.89;60.04
57779;BME280;43608;49.486;9.640;2023-07-24T00:03:51;97924.72;;;18.76;60.29
57779;BME280;43608;49.486;9.640;2023-07-24T00:04:21;97935.16;;;18.82;60.21
57779;BME280;43608;49.486;9.640;2023-07-24T00:04:51;97924.72;;;18.76;60.36
57779;BME280;43608;49.486;9.640;2023-07-24T00:05:22;97942.00;;;18.88;60.53
57779;BME280;43608;49.486;9.640;2023-07-24T00:05:52;97948.34;;;18.87;60.46
57779;BME280;43608;49.486;9.640;2023-07-24T00:06:22;97937.53;;;18.89;60.51
57779;BME280;43608;49.486;9.640;2023-07-24T00:06:53;97941.09;;;18.89;60.71
57779;BME280;43608;49.486;9.640;2023-07-24T00:07:24;97944.59;;;18.91;60.73
57779;BME280;43608;49.486;9.640;2023-07-24T00:07:55;97938.56;;;18.86;60.86
57779;BME280;43608;49.486;9.640;2023-07-24T00:08:25;97912.31;;;18.74;60.99
57779;BME280;43608;49.486;9.640;2023-07-24T00:08:56;97917.66;;;18.74;61.03
57779;BME280;43608;49.486;9.640;2023-07-24T00:09:26;97918.41;;;18.77;60.89
57779;BME280;43608;49.486;9.640;2023-07-24T00:09:57;97930.63;;;18.83;60.70
57779;BME280;43608;49.486;9.640;2023-07-24T00:10:27;97947.38;;;18.90;61.05
57779;BME280;43608;49.486;9.640;2023-07-24T00:10:57;97942.84;;;18.90;60.79
57779;BME280;43608;49.486;9.640;2023-07-24T00:11:28;97928.28;;;18.77;61.02
57779;BME280;43608;49.486;9.640;2023-07-24T00:11:59;97937.03;;;18.80;60.76
57779;BME280;43608;49.486;9.640;2023-07-24T00:12:29;97953.63;;;18.89;60.93
57779;BME280;43608;49.486;9.640;2023-07-24T00:13:00;97932.75;;;18.76;60.95
57779;BME280;43608;49.486;9.640;2023-07-24T00:13:31;97933.78;;;18.74;60.69
57779;BME280;43608;49.486;9.640;2023-07-24T00:14:01;97956.41;;;18.87;61.12
57779;BME280;43608;49.486;9.640;2023-07-24T00:14:31;97970.84;;;18.85;61.34
57779;BME280;43608;49.486;9.640;2023-07-24T00:15:02;97958.81;;;18.74;61.10
57779;BME280;43608;49.486;9.640;2023-07-24T00:15:32;97968.16;;;18.85;61.19
57779;BME280;43608;49.486;9.640;2023-07-24T00:16:07;97950.91;;;18.71;61.62
57779;BME280;43608;49.486;9.640;2023-07-24T00:16:38;97963.09;;;18.78;61.37
57779;BME280;43608;49.486;9.640;2023-07-24T00:17:08;97974.47;;;18.83;61.61
57779;BME280;43608;49.486;9.640;2023-07-24T00:17:39;97950.78;;;18.74;61.43
57779;BME280;43608;49.486;9.640;2023-07-24T00:18:09;97933.94;;;18.71;61.75
57779;BME280;43608;49.486;9.640;2023-07-24T00:18:40;97930.41;;;18.70;61.89
57779;BME280;43608;49.486;9.640;2023-07-24T00:19:11;97950.44;;;18.80;61.85
57779;BME280;43608;49.486;9.640;2023-07-24T00:19:41;97937.28;;;18.76;61.66
57779;BME280;43608;49.486;9.640;2023-07-24T00:20:11;97949.59;;;18.80;61.74
57779;BME280;43608;49.486;9.640;2023-07-24T00:20:42;97948.78;;;18.78;62.02
57779;BME280;43608;49.486;9.640;2023-07-24T00:21:12;97934.97;;;18.68;62.02
57779;BME280;43608;49.486;9.640;2023-07-24T00:21:43;97951.56;;;18.76;62.16
57779;BME280;43608;49.486;9.640;2023-07-24T00:22:13;97946.50;;;18.70;62.09
57779;BME280;43608;49.486;9.640;2023-07-24T00:22:44;97952.56;;;18.74;62.14
57779;BME280;43608;49.486;9.640;2023-07-24T00:23:14;97962.44;;;18.73;62.73
57779;BME280;43608;49.486;9.640;2023-07-24T00:23:45;97963.38;;;18.72;62.69
57779;BME280;43608;49.486;9.640;2023-07-24T00:24:15;97938.88;;;18.61;62.95
57779;BME280;43608;49.486;9.640;2023-07-24T00:24:45;97937.16;;;18.60;62.76
57779;BME280;43608;49.486;9.640;2023-07-24T00:25:16;97935.56;;;18.56;62.73
57779;BME280;43608;49.486;9.640;2023-07-24T00:25:46;97946.63;;;18.67;63.03
57779;BME280;43608;49.486;9.640;2023-07-24T00:26:16;97919.69;;;18.51;62.99
57779;BME280;43608;49.486;9.640;2023-07-24T00:26:47;97887.50;;;18.32;63.13
57779;BME280;43608;49.486;9.640;2023-07-24T00:27:17;97935.34;;;18.60;63.10
57779;BME280;43608;49.486;9.640;2023-07-24T00:27:47;97944.25;;;18.61;63.17
57779;BME280;43608;49.486;9.640;2023-07-24T00:28:18;97919.97;;;18.45;63.11
57779;BME280;43608;49.486;9.640;2023-07-24T00:28:48;97932.38;;;18.47;63.37
57779;BME280;43608;49.486;9.640;2023-07-24T00:29:19;97931.44;;;18.48;63.55
57779;BME280;43608;49.486;9.640;2023-07-24T00:29:49;97941.94;;;18.53;63.64
57779;BME280;43608;49.486;9.640;2023-07-24T00:30:19;97939.50;;;18.48;63.59
57779;BME280;43608;49.486;9.640;2023-07-24T00:30:50;97942.19;;;18.48;63.86
57779;BME280;43608;49.486;9.640;2023-07-24T00:31:20;97948.47;;;18.47;63.66
57779;BME280;43608;49.486;9.640;2023-07-24T00:31:50;97938.03;;;18.41;64.48
57779;BME280;43608;49.486;9.640;2023-07-24T00:32:21;97943.19;;;18.46;64.19
57779;BME280;43608;49.486;9.640;2023-07-24T00:32:51;97938.13;;;18.40;64.17
57779;BME280;43608;49.486;9.640;2023-07-24T00:33:22;97941.72;;;18.39;64.25
57779;BME280;43608;49.486;9.640;2023-07-24T00:33:52;97926.97;;;18.30;64.27
57779;BME280;43608;49.486;9.640;2023-07-24T00:34:22;97935.50;;;18.38;64.50
57779;BME280;43608;49.486;9.640;2023-07-24T00:34:53;97946.03;;;18.43;64.43
57779;BME280;43608;49.486;9.640;2023-07-24T00:35:25;97952.25;;;18.43;64.64
57779;BME280;43608;49.486;9.640;2023-07-24T00:35:56;97946.97;;;18.42;64.56
57779;BME280;43608;49.486;9.640;2023-07-24T00:36:27;97935.03;;;18.30;64.71
57779;BME280;43608;49.486;9.640;2023-07-24T00:36:58;97923.56;;;18.26;64.63
57779;BME280;43608;49.486;9.640;2023-07-24T00:37:28;97947.25;;;18.36;64.76
57779;BME280;43608;49.486;9.640;2023-07-24T00:37:58;97935.06;;;18.28;64.76
57779;BME280;43608;49.486;9.640;2023-07-24T00:38:29;97936.09;;;18.26;65.12
57779;BME280;43608;49.486;9.640;2023-07-24T00:38:59;97962.34;;;18.38;65.22
57779;BME280;43608;49.486;9.640;2023-07-24T00:39:29;97964.16;;;18.38;65.40
57779;BME280;43608;49.486;9.640;2023-07-24T00:40:00;97949.44;;;18.27;65.02
57779;BME280;43608;49.486;9.640;2023-07-24T00:40:30;97967.88;;;18.35;65.21
57779;BME280;43608;49.486;9.640;2023-07-24T00:41:01;97962.50;;;18.35;65.11
57779;BME280;43608;49.486;9.640;2023-07-24T00:41:31;97942.41;;;18.25;65.34
57779;BME280;43608;49.486;9.640;2023-07-24T00:42:02;97963.50;;;18.32;65.22
57779;BME280;43608;49.486;9.640;2023-07-24T00:42:32;97944.28;;;18.23;65.56
57779;BME280;43608;49.486;9.640;2023-07-24T00:43:03;97958.16;;;18.32;65.66
57779;BME280;43608;49.486;9.640;2023-07-24T00:43:33;97950.16;;;18.31;65.76
57779;BME280;43608;49.486;9.640;2023-07-24T00:44:03;97933.72;;;18.20;65.48
57779;BME280;43608;49.486;9.640;2023-07-24T00:44:34;97930.88;;;18.23;65.88
57779;BME280;43608;49.486;9.640;2023-07-24T00:45:05;97944.94;;;18.28;65.96
57779;BME280;43608;49.486;9.640;2023-07-24T00:45:35;97940.59;;;18.25;65.85
57779;BME280;43608;49.486;9.640;2023-07-24T00:46:06;97948.63;;;18.25;65.92
57779;BME280;43608;49.486;9.640;2023-07-24T00:46:37;97941.59;;;18.23;66.09
57779;BME280;43608;49.486;9.640;2023-07-24T00:47:08;97929.28;;;18.19;66.00
57779;BME280;43608;49.486;9.640;2023-07-24T00:47:38;97932.19;;;18.14;66.30
57779;BME280;43608;49.486;9.640;2023-07-24T00:48:09;97920.78;;;18.09;66.31
57779;BME280;43608;49.486;9.640;2023-07-24T00:48:40;97935.75;;;18.14;66.19
57779;BME280;43608;49.486;9.640;2023-07-24T00:49:10;97925.22;;;18.10;66.37
57779;BME280;43608;49.486;9.640;2023-07-24T00:49:41;97918.28;;;18.06;66.45
57779;BME280;43608;49.486;9.640;2023-07-24T00:50:12;97938.28;;;18.17;66.74
57779;BME280;43608;49.486;9.640;2023-07-24T00:50:43;97934.72;;;18.17;66.79
57779;BME280;43608;49.486;9.640;2023-07-24T00:51:14;97915.59;;;18.06;66.89
57779;BME280;43608;49.486;9.640;2023-07-24T00:51:45;97915.59;;;18.06;67.16
57779;BME280;43608;49.486;9.640;2023-07-24T00:52:16;97922.63;;;18.08;67.34
57779;BME280;43608;49.486;9.640;2023-07-24T00:52:47;97920.94;;;18.06;67.31
57779;BME280;43608;49.486;9.640;2023-07-24T00:53:19;97945.59;;;18.14;67.49
57779;BME280;43608;49.486;9.640;2023-07-24T00:53:49;97927.25;;;18.05;67.35
57779;BME280;43608;49.486;9.640;2023-07-24T00:54:21;97940.53;;;18.08;67.32
57779;BME280;43608;49.486;9.640;2023-07-24T00:54:53;97920.50;;;17.96;67.56
57779;BME280;43608;49.486;9.640;2023-07-24T00:55:23;97927.53;;;17.98;67.65
57779;BME280;43608;49.486;9.640;2023-07-24T00:55:54;97948.50;;;18.09;67.75
57779;BME280;43608;49.486;9.640;2023-07-24T00:56:24;97951.25;;;18.08;67.91
57779;BME280;43608;49.486;9.640;2023-07-24T00:56:55;97930.22;;;17.98;67.75
57779;BME280;43608;49.486;9.640;2023-07-24T00:57:25;97943.41;;;18.03;68.04
57779;BME280;43608;49.486;9.640;2023-07-24T00:57:58;97940.72;;;18.03;68.28
57779;BME280;43608;49.486;9.640;2023-07-24T00:58:28;97932.75;;;18.02;68.37
57779;BME280;43608;49.486;9.640;2023-07-24T00:58:59;97937.25;;;18.01;68.44
57779;BME280;43608;49.486;9.640;2023-07-24T00:59:31;97933.63;;;18.02;68.57
57779;BME280;43608;49.486;9.640;2023-07-24T01:00:02;97921.56;;;17.92;68.65
57779;BME280;43608;49.486;9.640;2023-07-24T01:00:33;97897.78;;;17.84;68.60
57779;BME280;43608;49.486;9.640;2023-07-24T01:01:04;97914.59;;;17.88;68.58
57779;BME280;43608;49.486;9.640;2023-07-24T01:01:35;97922.50;;;17.91;68.73
57779;BME280;43608;49.486;9.640;2023-07-24T01:02:07;97917.28;;;17.88;68.81
57779;BME280;43608;49.486;9.640;2023-07-24T01:02:37;97934.78;;;17.96;68.88
57779;BME280;43608;49.486;9.640;2023-07-24T01:03:09;97906.78;;;17.83;68.65
57779;BME280;43608;49.486;9.640;2023-07-24T01:03:39;97898.09;;;17.78;68.98
57779;BME280;43608;49.486;9.640;2023-07-24T01:04:10;97919.81;;;17.91;68.94
57779;BME280;43608;49.486;9.640;2023-07-24T01:04:41;97923.44;;;17.90;68.82
57779;BME280;43608;49.486;9.640;2023-07-24T01:05:13;97924.22;;;17.92;69.03
57779;BME280;43608;49.486;9.640;2023-07-24T01:05:45;97926.34;;;17.85;69.14
57779;BME280;43608;49.486;9.640;2023-07-24T01:06:15;97922.72;;;17.86;69.31
57779;BME280;43608;49.486;9.640;2023-07-24T01:06:45;97930.75;;;17.86;69.29
57779;BME280;43608;49.486;9.640;2023-07-24T01:07:16;97929.66;;;17.90;69.27
57779;BME280;43608;49.486;9.640;2023-07-24T01:07:47;97902.72;;;17.74;69.39
57779;BME280;43608;49.486;9.640;2023-07-24T01:08:17;97915.84;;;17.80;69.46
57779;BME280;43608;49.486;9.640;2023-07-24T01:08:47;97926.22;;;17.88;69.53
57779;BME280;43608;49.486;9.640;2023-07-24T01:09:18;97908.84;;;17.76;69.35
57779;BME280;43608;49.486;9.640;2023-07-24T01:09:48;97933.44;;;17.86;69.50
57779;BME280;43608;49.486;9.640;2023-07-24T01:10:21;97932.59;;;17.86;69.22
57779;BME280;43608;49.486;9.640;2023-07-24T01:10:51;97916.91;;;17.76;69.44
57779;BME280;43608;49.486;9.640;2023-07-24T01:11:27;97918.56;;;17.79;69.76
57779;BME280;43608;49.486;9.640;2023-07-24T01:12:04;97930.03;;;17.82;69.91
57779;BME280;43608;49.486;9.640;2023-07-24T01:12:59;97918.63;;;17.77;70.18
57779;BME280;43608;49.486;9.640;2023-07-24T01:13:33;97881.47;;;17.50;70.08
57779;BME280;43608;49.486;9.640;2023-07-24T01:15:00;97923.94;;;17.79;70.08
57779;BME280;43608;49.486;9.640;2023-07-24T01:15:48;97898.72;;;17.64;70.36
57779;BME280;43608;49.486;9.640;2023-07-24T01:16:21;97924.00;;;17.77;70.53
57779;BME280;43608;49.486;9.640;2023-07-24T01:16:54;97911.84;;;17.70;70.51
57779;BME280;43608;49.486;9.640;2023-07-24T01:17:28;97918.13;;;17.69;70.25
57779;BME280;43608;49.486;9.640;2023-07-24T01:18:11;97899.50;;;17.66;70.42
57779;BME280;43608;49.486;9.640;2023-07-24T01:18:44;97907.34;;;17.71;70.58
57779;BME280;43608;49.486;9.640;2023-07-24T01:19:39;97916.22;;;17.71;70.80
57779;BME280;43608;49.486;9.640;2023-07-24T01:20:11;97893.69;;;17.56;70.57
57779;BME280;43608;49.486;9.640;2023-07-24T01:20:48;97909.28;;;17.67;70.74
57779;BME280;43608;49.486;9.640;2023-07-24T01:22:25;97906.81;;;17.62;71.04
57779;BME280;43608;49.486;9.640;2023-07-24T01:24:00;97912.13;;;17.64;70.99
57779;BME280;43608;49.486;9.640;2023-07-24T01:25:35;97868.88;;;17.32;71.23
57779;BME280;43608;49.486;9.640;2023-07-24T01:26:08;97894.88;;;17.50;71.18
57779;BME280;43608;49.486;9.640;2023-07-24T01:26:39;97882.75;;;17.42;71.39
57779;BME280;43608;49.486;9.640;2023-07-24T01:27:10;97916.00;;;17.57;71.37
57779;BME280;43608;49.486;9.640;2023-07-24T01:27:44;97908.03;;;17.55;71.45
57779;BME280;43608;49.486;9.640;2023-07-24T01:28:14;97898.53;;;17.48;71.21
57779;BME280;43608;49.486;9.640;2023-07-24T01:28:45;97907.25;;;17.53;71.33
57779;BME280;43608;49.486;9.640;2023-07-24T01:29:16;97893.53;;;17.40;71.45
57779;BME280;43608;49.486;9.640;2023-07-24T01:29:46;97896.00;;;17.45;71.59
57779;BME280;43608;49.486;9.640;2023-07-24T01:30:18;97907.44;;;17.48;71.67
57779;BME280;43608;49.486;9.640;2023-07-24T01:30:49;97861.19;;;17.24;71.74
57779;BME280;43608;49.486;9.640;2023-07-24T01:31:19;97889.09;;;17.39;71.57
57779;BME280;43608;49.486;9.640;2023-07-24T01:31:50;97865.53;;;17.27;71.92
57779;BME280;43608;49.486;9.640;2023-07-24T01:32:20;97871.63;;;17.30;71.71
57779;BME280;43608;49.486;9.640;2023-07-24T01:32:51;97896.13;;;17.42;71.79
57779;BME280;43608;49.486;9.640;2023-07-24T01:33:22;97898.00;;;17.40;72.10
57779;BME280;43608;49.486;9.640;2023-07-24T01:33:52;97894.66;;;17.34;72.40
57779;BME280;43608;49.486;9.640;2023-07-24T01:34:23;97888.44;;;17.34;72.24
57779;BME280;43608;49.486;9.640;2023-07-24T01:34:54;97871.91;;;17.24;72.36
57779;BME280;43608;49.486;9.640;2023-07-24T01:35:25;97899.16;;;17.34;72.52
57779;BME280;43608;49.486;9.640;2023-07-24T01:35:58;97887.84;;;17.27;72.60
57779;BME280;43608;49.486;9.640;2023-07-24T01:36:29;97892.13;;;17.31;72.60
57779;BME280;43608;49.486;9.640;2023-07-24T01:36:59;97892.19;;;17.30;72.66
57779;BME280;43608;49.486;9.640;2023-07-24T01:37:31;97888.72;;;17.28;73.04
57779;BME280;43608;49.486;9.640;2023-07-24T01:38:02;97873.19;;;17.15;73.18
57779;BME280;43608;49.486;9.640;2023-07-24T01:38:35;97887.03;;;17.25;73.16
57779;BME280;43608;49.486;9.640;2023-07-24T01:39:06;97880.22;;;17.18;73.20
57779;BME280;43608;49.486;9.640;2023-07-24T01:39:37;97885.44;;;17.21;73.39
57779;BME280;43608;49.486;9.640;2023-07-24T01:40:10;97868.88;;;17.11;73.35
57779;BME280;43608;49.486;9.640;2023-07-24T01:40:41;97876.88;;;17.13;73.31
57779;BME280;43608;49.486;9.640;2023-07-24T01:41:11;97875.91;;;17.14;73.51
57779;BME280;43608;49.486;9.640;2023-07-24T01:41:42;97880.34;;;17.15;73.43
57779;BME280;43608;49.486;9.640;2023-07-24T01:42:13;97851.91;;;16.92;73.44
57779;BME280;43608;49.486;9.640;2023-07-24T01:42:44;97860.34;;;17.03;73.63
57779;BME280;43608;49.486;9.640;2023-07-24T01:43:14;97865.63;;;17.05;73.57
57779;BME280;43608;49.486;9.640;2023-07-24T01:43:45;97858.72;;;16.99;73.55
57779;BME280;43608;49.486;9.640;2023-07-24T01:44:15;97881.41;;;17.11;73.60
57779;BME280;43608;49.486;9.640;2023-07-24T01:44:51;97883.16;;;17.12;73.86
57779;BME280;43608;49.486;9.640;2023-07-24T01:45:21;97885.84;;;17.12;73.73
57779;BME280;43608;49.486;9.640;2023-07-24T01:45:52;97874.31;;;17.10;73.86
57779;BME280;43608;49.486;9.640;2023-07-24T01:46:23;97869.84;;;17.10;73.91
57779;BME280;43608;49.486;9.640;2023-07-24T01:46:53;97864.75;;;17.04;73.77
57779;BME280;43608;49.486;9.640;2023-07-24T01:47:23;97857.72;;;17.01;74.07
57779;BME280;43608;49.486;9.640;2023-07-24T01:47:54;97850.78;;;16.97;73.90
57779;BME280;43608;49.486;9.640;2023-07-24T01:48:24;97806.56;;;16.66;73.95
57779;BME280;43608;49.486;9.640;2023-07-24T01:48:55;97870.03;;;17.06;74.06
57779;BME280;43608;49.486;9.640;2023-07-24T01:49:25;97872.72;;;17.06;74.16
57779;BME280;43608;49.486;9.640;2023-07-24T01:49:56;97852.00;;;16.89;74.17
57779;BME280;43608;49.486;9.640;2023-07-24T01:50:26;97862.41;;;16.96;74.11
57779;BME280;43608;49.486;9.640;2023-07-24T01:50:57;97836.22;;;16.82;74.20
57779;BME280;43608;49.486;9.640;2023-07-24T01:51:27;97845.78;;;16.88;74.16
57779;BME280;43608;49.486;9.640;2023-07-24T01:51:57;97842.50;;;16.81;74.20
57779;BME280;43608;49.486;9.640;2023-07-24T01:52:28;97842.50;;;16.81;74.14
57779;BME280;43608;49.486;9.640;2023-07-24T01:52:58;97862.56;;;16.93;74.61
57779;BME280;43608;49.486;9.640;2023-07-24T01:53:29;97856.53;;;16.87;74.62
57779;BME280;43608;49.486;9.640;2023-07-24T01:53:59;97839.88;;;16.80;74.92
57779;BME280;43608;49.486;9.640;2023-07-24T01:54:29;97837.22;;;16.80;74.86
57779;BME280;43608;49.486;9.640;2023-07-24T01:55:00;97857.50;;;16.85;75.04
57779;BME280;43608;49.486;9.640;2023-07-24T01:55:30;97826.84;;;16.72;75.03
57779;BME280;43608;49.486;9.640;2023-07-24T01:56:00;97843.69;;;16.74;75.10
57779;BME280;43608;49.486;9.640;2023-07-24T01:56:30;97835.81;;;16.71;75.33
57779;BME280;43608;49.486;9.640;2023-07-24T01:57:01;97844.69;;;16.72;75.33
57779;BME280;43608;49.486;9.640;2023-07-24T01:57:31;97844.84;;;16.68;75.37
57779;BME280;43608;49.486;9.640;2023-07-24T01:58:01;97846.56;;;16.69;75.34
57779;BME280;43608;49.486;9.640;2023-07-24T01:58:32;97864.97;;;16.77;75.36
57779;BME280;43608;49.486;9.640;2023-07-24T01:59:02;97847.56;;;16.67;75.60
57779;BME280;43608;49.486;9.640;2023-07-24T01:59:32;97800.66;;;16.38;75.23
57779;BME280;43608;49.486;9.640;2023-07-24T02:00:03;97850.84;;;16.74;75.51
57779;BME280;43608;49.486;9.640;2023-07-24T02:00:34;97835.47;;;16.58;75.67
57779;BME280;43608;49.486;9.640;2023-07-24T02:01:04;97855.41;;;16.72;75.54
57779;BME280;43608;49.486;9.640;2023-07-24T02:01:34;97855.34;;;16.73;75.64
57779;BME280;43608;49.486;9.640;2023-07-24T02:02:05;97819.84;;;16.47;75.50
57779;BME280;43608;49.486;9.640;2023-07-24T02:02:35;97852.72;;;16.72;75.65
57779;BME280;43608;49.486;9.640;2023-07-24T02:03:05;97837.06;;;16.62;75.62
57779;BME280;43608;49.486;9.640;2023-07-24T02:03:36;97859.84;;;16.73;75.60
57779;BME280;43608;49.486;9.640;2023-07-24T02:04:06;97799.66;;;16.40;75.75
57779;BME280;43608;49.486;9.640;2023-07-24T02:04:37;97851.19;;;16.66;75.75
57779;BME280;43608;49.486;9.640;2023-07-24T02:05:07;97839.06;;;16.57;75.53
57779;BME280;43608;49.486;9.640;2023-07-24T02:05:38;97837.25;;;16.58;75.78
57779;BME280;43608;49.486;9.640;2023-07-24T02:06:08;97814.72;;;16.43;75.53
57779;BME280;43608;49.486;9.640;2023-07-24T02:06:38;97862.63;;;16.69;75.78
57779;BME280;43608;49.486;9.640;2023-07-24T02:07:09;97861.75;;;16.69;76.21
57779;BME280;43608;49.486;9.640;2023-07-24T02:07:39;97852.97;;;16.65;75.72
57779;BME280;43608;49.486;9.640;2023-07-24T02:08:09;97857.56;;;16.63;75.63
57779;BME280;43608;49.486;9.640;2023-07-24T02:08:40;97854.88;;;16.63;75.94
57779;BME280;43608;49.486;9.640;2023-07-24T02:09:11;97856.66;;;16.63;75.90
57779;BME280;43608;49.486;9.640;2023-07-24T02:09:41;97840.13;;;16.53;75.94
57779;BME280;43608;49.486;9.640;2023-07-24T02:10:11;97847.09;;;16.57;75.84
57779;BME280;43608;49.486;9.640;2023-07-24T02:10:42;97854.91;;;16.62;75.87
57779;BME280;43608;49.486;9.640;2023-07-24T02:11:12;97853.19;;;16.61;75.87
57779;BME280;43608;49.486;9.640;2023-07-24T02:11:42;97854.13;;;16.60;76.10
57779;BME280;43608;49.486;9.640;2023-07-24T02:12:13;97860.53;;;16.56;76.03
57779;BME280;43608;49.486;9.640;2023-07-24T02:12:43;97854.22;;;16.57;76.05
57779;BME280;43608;49.486;9.640;2023-07-24T02:13:13;97841.19;;;16.49;76.17
57779;BME280;43608;49.486;9.640;2023-07-24T02:13:44;97853.31;;;16.58;76.11
57779;BME280;43608;49.486;9.640;2023-07-24T02:14:15;97854.22;;;16.57;76.28
57779;BME280;43608;49.486;9.640;2023-07-24T02:14:46;97834.22;;;16.45;76.21
57779;BME280;43608;49.486;9.640;2023-07-24T02:15:21;97838.66;;;16.46;76.22
57779;BME280;43608;49.486;9.640;2023-07-24T02:15:51;97831.69;;;16.42;76.51
57779;BME280;43608;49.486;9.640;2023-07-24T02:16:23;97850.09;;;16.49;76.38
57779;BME280;43608;49.486;9.640;2023-07-24T02:16:54;97843.91;;;16.47;76.30
57779;BME280;43608;49.486;9.640;2023-07-24T02:17:24;97843.06;;;16.47;76.35
57779;BME280;43608;49.486;9.640;2023-07-24T02:17:54;97811.78;;;16.27;76.39
57779;BME280;43608;49.486;9.640;2023-07-24T02:18:25;97849.28;;;16.47;76.16
57779;BME280;43608;49.486;9.640;2023-07-24T02:18:55;97847.41;;;16.49;76.39
57779;BME280;43608;49.486;9.640;2023-07-24T02:19:25;97837.78;;;16.45;76.59
57779;BME280;43608;49.486;9.640;2023-07-24T02:19:56;97836.19;;;16.41;76.37
57779;BME280;43608;49.486;9.640;2023-07-24T02:20:26;97849.28;;;16.47;76.49
57779;BME280;43608;49.486;9.640;2023-07-24T02:20:56;97848.19;;;16.51;76.52
57779;BME280;43608;49.486;9.640;2023-07-24T02:21:27;97810.94;;;16.26;76.35
57779;BME280;43608;49.486;9.640;2023-07-24T02:21:57;97833.69;;;16.37;76.53
57779;BME280;43608;49.486;9.640;2023-07-24T02:22:27;97844.25;;;16.40;76.43
57779;BME280;43608;49.486;9.640;2023-07-24T02:22:58;97832.75;;;16.38;76.54
57779;BME280;43608;49.486;9.640;2023-07-24T02:23:28;97837.19;;;16.39;76.52
57779;BME280;43608;49.486;9.640;2023-07-24T02:23:58;97851.09;;;16.47;76.73
57779;BME280;43608;49.486;9.640;2023-07-24T02:24:29;97843.38;;;16.39;76.74
57779;BME280;43608;49.486;9.640;2023-07-24T02:24:59;97832.19;;;16.29;76.58
57779;BME280;43608;49.486;9.640;2023-07-24T02:25:29;97854.63;;;16.47;76.59
57779;BME280;43608;49.486;9.640;2023-07-24T02:26:00;97865.31;;;16.47;76.66
57779;BME280;43608;49.486;9.640;2023-07-24T02:26:31;97859.13;;;16.47;76.80
57779;BME280;43608;49.486;9.640;2023-07-24T02:27:01;97864.47;;;16.47;76.86
57779;BME280;43608;49.486;9.640;2023-07-24T02:27:32;97826.91;;;16.28;76.81
57779;BME280;43608;49.486;9.640;2023-07-24T02:28:04;97862.78;;;16.44;76.92
57779;BME280;43608;49.486;9.640;2023-07-24T02:28:34;97844.44;;;16.35;76.93
57779;BME280;43608;49.486;9.640;2023-07-24T02:29:04;97863.63;;;16.45;76.98
57779;BME280;43608;49.486;9.640;2023-07-24T02:29:35;97865.47;;;16.44;76.84
57779;BME280;43608;49.486;9.640;2023-07-24T02:30:06;97840.28;;;16.28;76.86
57779;BME280;43608;49.486;9.640;2023-07-24T02:30:39;97814.16;;;16.12;76.79
57779;BME280;43608;49.486;9.640;2023-07-24T02:31:10;97846.44;;;16.30;76.94
57779;BME280;43608;49.486;9.640;2023-07-24T02:31:40;97854.31;;;16.33;76.92
57779;BME280;43608;49.486;9.640;2023-07-24T02:32:11;97865.84;;;16.35;76.88
57779;BME280;43608;49.486;9.640;2023-07-24T02:32:41;97853.47;;;16.32;76.89
57779;BME280;43608;49.486;9.640;2023-07-24T02:33:11;97865.78;;;16.37;77.03
57779;BME280;43608;49.486;9.640;2023-07-24T02:33:42;97871.94;;;16.39;76.97
57779;BME280;43608;49.486;9.640;2023-07-24T02:34:12;97845.75;;;16.25;77.19
57779;BME280;43608;49.486;9.640;2023-07-24T02:34:43;97849.44;;;16.22;77.12
57779;BME280;43608;49.486;9.640;2023-07-24T02:35:13;97874.72;;;16.35;76.93
57779;BME280;43608;49.486;9.640;2023-07-24T02:35:43;97872.25;;;16.31;77.25
57779;BME280;43608;49.486;9.640;2023-07-24T02:36:14;97876.53;;;16.35;77.39
57779;BME280;43608;49.486;9.640;2023-07-24T02:36:45;97854.69;;;16.24;77.35
57779;BME280;43608;49.486;9.640;2023-07-24T02:37:15;97855.53;;;16.26;77.33
57779;BME280;43608;49.486;9.640;2023-07-24T02:37:45;97876.72;;;16.30;77.31
57779;BME280;43608;49.486;9.640;2023-07-24T02:38:16;97883.81;;;16.31;77.26
57779;BME280;43608;49.486;9.640;2023-07-24T02:38:46;97882.00;;;16.32;77.38
57779;BME280;43608;49.486;9.640;2023-07-24T02:39:16;97868.94;;;16.24;77.48
57779;BME280;43608;49.486;9.640;2023-07-24T02:39:47;97858.50;;;16.18;77.48
57779;BME280;43608;49.486;9.640;2023-07-24T02:40:17;97884.66;;;16.32;77.67
57779;BME280;43608;49.486;9.640;2023-07-24T02:40:47;97879.38;;;16.30;77.55
57779;BME280;43608;49.486;9.640;2023-07-24T02:41:18;97871.56;;;16.26;77.54
57779;BME280;43608;49.486;9.640;2023-07-24T02:41:48;97874.97;;;16.29;77.52
57779;BME280;43608;49.486;9.640;2023-07-24T02:42:19;97873.28;;;16.27;77.68
57779;BME280;43608;49.486;9.640;2023-07-24T02:42:49;97868.06;;;16.24;77.71
57779;BME280;43608;49.486;9.640;2023-07-24T02:43:20;97849.44;;;16.22;77.58
57779;BME280;43608;49.486;9.640;2023-07-24T02:43:50;97859.97;;;16.25;78.19
57779;BME280;43608;49.486;9.640;2023-07-24T02:44:20;97859.06;;;16.26;77.87
57779;BME280;43608;49.486;9.640;2023-07-24T02:44:51;97867.06;;;16.26;77.94
57779;BME280;43608;49.486;9.640;2023-07-24T02:45:23;97840.19;;;16.07;77.91
57779;BME280;43608;49.486;9.640;2023-07-24T02:45:53;97860.91;;;16.24;78.03
57779;BME280;43608;49.486;9.640;2023-07-24T02:46:23;97822.78;;;15.97;78.05
57779;BME280;43608;49.486;9.640;2023-07-24T02:46:55;97861.88;;;16.23;78.17
57779;BME280;43608;49.486;9.640;2023-07-24T02:47:25;97842.63;;;16.13;77.94
57779;BME280;43608;49.486;9.640;2023-07-24T02:47:55;97831.25;;;16.08;78.46
57779;BME280;43608;49.486;9.640;2023-07-24T02:48:25;97843.63;;;16.11;78.08